Time;durP1;ratioP1;P1;durP2;ratioP2;P2;SDS_P1;SDS_P2;PMS_P1;PMS_P2;Temp;Humidity;BMP_temperature;BMP_pressure;BME280_temperature;BME280_humidity;BME280_pressure;Samples;Min_cycle;Max_cycle;Signal;HPM_P1;HPM_P2
2022/12/02 00:00:18;;;;;;;;;39.00;30.75;;;;;7.07;65.97;101787.59;5076601;27;46350;-57
2022/12/02 00:02:44;;;;;;;;;47.00;35.80;;;;;7.03;66.28;101777.00;5074861;28;45445;-55
2022/12/02 00:05:09;;;;;;;;;46.75;36.25;;;;;7.08;66.10;101781.97;5076864;27;45401;-56
2022/12/02 00:07:35;;;;;;;;;39.00;32.00;;;;;7.06;66.49;101775.81;5076818;27;45386;-54
2022/12/02 00:10:00;;;;;;;;;35.25;30.75;;;;;6.94;66.41;101760.75;5075181;28;46091;-56
2022/12/02 00:12:27;;;;;;;;;41.25;33.75;;;;;7.10;66.63;101770.91;5076570;27;45463;-53
2022/12/02 00:14:57;;;;;;;;;41.80;34.60;;;;;7.11;66.60;101770.75;5076002;27;45182;-56
2022/12/02 00:17:23;;;;;;;;;40.00;34.20;;;;;7.06;66.00;101756.72;5075117;28;45511;-57
2022/12/02 00:19:48;;;;;;;;;37.00;33.40;;;;;7.11;66.02;101776.19;5074646;28;45409;-58
2022/12/02 00:22:14;;;;;;;;;37.75;29.75;;;;;7.06;66.90;101767.63;5076323;28;45420;-57
2022/12/02 00:24:39;;;;;;;;;39.50;33.50;;;;;7.04;66.71;101754.16;5075066;27;45430;-57
2022/12/02 00:27:05;;;;;;;;;47.00;38.00;;;;;6.86;66.88;101723.34;5076050;27;45482;-55
2022/12/02 00:29:30;;;;;;;;;45.50;35.25;;;;;6.95;66.70;101726.97;5075736;27;45635;-58
2022/12/02 00:31:56;;;;;;;;;39.50;33.50;;;;;7.10;66.75;101759.97;5075850;27;45375;-58
2022/12/02 00:34:21;;;;;;;;;43.00;32.75;;;;;7.14;66.53;101753.16;5075950;27;45566;-59
2022/12/02 00:36:47;;;;;;;;;49.75;37.50;;;;;7.14;66.40;101747.69;5076246;27;45205;-57
2022/12/02 00:39:12;;;;;;;;;47.50;37.25;;;;;7.09;66.94;101742.72;5075314;28;46472;-57
2022/12/02 00:41:37;;;;;;;;;49.75;36.75;;;;;7.10;67.42;101746.31;5076032;27;45267;-57
2022/12/02 00:46:47;;;;;;;;;45.20;35.80;;;;;7.06;67.61;101743.06;5075967;28;45325;-54
2022/12/02 00:49:14;;;;;;;;;39.00;33.00;;;;;7.09;67.59;101739.16;5075503;28;45288;-53
2022/12/02 00:51:40;;;;;;;;;46.60;38.60;;;;;6.83;67.20;101705.41;5075674;28;45361;-55
2022/12/02 00:54:05;;;;;;;;;48.80;38.40;;;;;6.98;67.44;101727.50;5046323;28;45943;-54
2022/12/02 00:56:31;;;;;;;;;37.75;34.00;;;;;7.05;67.84;101736.75;5076118;28;45637;-54
2022/12/02 00:58:57;;;;;;;;;42.00;35.50;;;;;6.96;67.33;101712.31;5057206;28;48195;-55
2022/12/02 01:01:22;;;;;;;;;42.75;37.00;;;;;7.09;67.70;101733.69;5075543;27;45423;-52
2022/12/02 01:03:48;;;;;;;;;55.50;37.00;;;;;6.72;67.75;101671.09;5075948;28;45354;-55
2022/12/02 01:06:13;;;;;;;;;40.00;34.50;;;;;7.13;67.60;101733.19;5075922;27;45385;-53
2022/12/02 01:08:39;;;;;;;;;47.25;38.25;;;;;7.17;67.14;101734.56;5075609;27;45379;-55
2022/12/02 01:11:04;;;;;;;;;39.50;34.00;;;;;7.07;67.33;101728.41;5075431;28;45542;-54
2022/12/02 01:13:30;;;;;;;;;53.75;38.25;;;;;7.10;67.33;101722.59;5075462;27;45338;-54
2022/12/02 01:15:56;;;;;;;;;48.25;38.50;;;;;6.74;67.75;101662.75;5074605;28;45436;-55
2022/12/02 01:18:21;;;;;;;;;49.40;39.20;;;;;7.05;67.35;101712.16;5075027;28;45521;-51
2022/12/02 01:20:47;;;;;;;;;46.25;38.75;;;;;7.13;67.13;101716.81;5090967;27;45394;-53
2022/12/02 01:23:12;;;;;;;;;45.00;37.25;;;;;7.22;66.88;101722.28;5075222;28;45292;-51
2022/12/02 01:25:39;;;;;;;;;44.00;38.00;;;;;7.11;66.93;101696.16;5075636;27;45215;-55
2022/12/02 01:28:04;;;;;;;;;45.20;37.80;;;;;6.95;66.78;101656.88;5074825;28;46398;-53
2022/12/02 01:30:30;;;;;;;;;55.75;38.00;;;;;7.31;66.84;101715.84;5073843;28;45806;-54
2022/12/02 01:32:55;;;;;;;;;44.50;31.50;;;;;7.29;66.39;101717.88;5073967;28;45381;-54
2022/12/02 01:35:21;;;;;;;;;42.50;38.25;;;;;7.28;66.41;101722.50;5074870;27;45351;-54
2022/12/02 01:37:46;;;;;;;;;40.75;35.50;;;;;7.28;66.55;101719.78;5075305;28;46523;-54
2022/12/02 01:40:12;;;;;;;;;42.25;37.75;;;;;7.23;67.08;101713.94;5073366;28;45566;-53
2022/12/02 01:42:38;;;;;;;;;49.25;38.50;;;;;7.29;66.27;101718.75;5073757;28;45484;-53
2022/12/02 01:45:04;;;;;;;;;35.50;29.75;;;;;7.28;66.61;101718.91;5090833;27;45527;-53
2022/12/02 01:47:29;;;;;;;;;47.50;39.75;;;;;7.29;66.39;101732.41;5072706;28;47194;-54
2022/12/02 01:49:54;;;;;;;;;52.50;38.75;;;;;7.12;66.50;101706.91;5073601;28;45364;-53
2022/12/02 01:52:20;;;;;;;;;46.25;33.00;;;;;7.29;66.66;101737.00;5073478;28;45432;-55
2022/12/02 01:54:46;;;;;;;;;48.25;39.00;;;;;7.26;66.50;101732.72;5056843;28;45446;-51
2022/12/02 01:57:13;;;;;;;;;47.50;38.75;;;;;7.29;66.69;101735.13;5052991;27;48018;-54
2022/12/02 01:59:39;;;;;;;;;50.80;40.00;;;;;7.07;66.49;101695.63;5068547;28;45303;-53
2022/12/02 02:02:25;;;;;;;;;49.25;42.00;;;;;7.21;67.03;101729.66;5074956;27;45418;-54
2022/12/02 02:04:51;;;;;;;;;47.80;36.40;;;;;7.26;66.68;101723.69;5074766;28;45547;-53
2022/12/02 02:07:17;;;;;;;;;46.40;35.60;;;;;7.24;66.41;101734.78;5090097;27;46831;-54
2022/12/02 02:09:43;;;;;;;;;48.75;39.25;;;;;7.25;66.89;101735.63;5072826;28;45397;-54
2022/12/02 02:12:08;;;;;;;;;52.25;39.50;;;;;7.19;66.54;101727.06;5074778;27;45492;-55
2022/12/02 02:14:34;;;;;;;;;58.25;38.00;;;;;7.17;66.75;101720.06;5072863;28;45670;-54
2022/12/02 02:16:59;;;;;;;;;45.50;38.75;;;;;7.25;66.78;101739.19;5073146;28;45864;-54
2022/12/02 02:19:25;;;;;;;;;49.25;36.25;;;;;7.14;66.57;101737.63;5074151;27;45433;-53
2022/12/02 02:21:50;;;;;;;;;56.75;40.25;;;;;7.01;67.61;101718.13;5072649;28;45827;-54
2022/12/02 02:24:16;;;;;;;;;43.25;37.50;;;;;7.08;66.89;101710.13;5073107;28;45460;-55
2022/12/02 02:26:41;;;;;;;;;45.50;39.50;;;;;7.05;67.10;101703.97;5073990;27;46083;-55
2022/12/02 02:29:07;;;;;;;;;49.75;38.25;;;;;7.08;66.89;101704.66;5074268;28;45302;-54
2022/12/02 02:31:32;;;;;;;;;49.50;38.00;;;;;7.00;67.29;101706.34;5073050;28;45367;-55
2022/12/02 02:33:58;;;;;;;;;47.00;38.75;;;;;7.02;67.13;101707.06;5074158;27;45598;-56
2022/12/02 02:36:23;;;;;;;;;52.50;40.00;;;;;6.96;66.60;101698.66;5072561;28;47320;-55
2022/12/02 02:38:48;;;;;;;;;52.00;37.75;;;;;6.93;67.10;101693.53;5055991;28;45420;-55
2022/12/02 02:41:14;;;;;;;;;45.00;37.00;;;;;6.96;67.26;101698.66;5073811;27;45328;-56
2022/12/02 02:43:39;;;;;;;;;47.75;39.00;;;;;6.61;67.10;101642.22;5073040;28;45323;-56
2022/12/02 02:46:05;;;;;;;;;38.00;34.25;;;;;7.01;66.86;101696.28;5072439;28;45382;-55
2022/12/02 02:48:30;;;;;;;;;45.25;36.50;;;;;7.01;67.09;101697.16;5075021;28;45473;-55
2022/12/02 02:50:56;;;;;;;;;54.75;40.75;;;;;6.95;66.51;101670.53;5077307;27;45331;-56
2022/12/02 02:53:23;;;;;;;;;45.25;38.50;;;;;7.07;66.80;101681.97;5059405;28;45341;-56
2022/12/02 02:55:48;;;;;;;;;56.60;39.40;;;;;7.15;66.66;101692.09;5075970;28;45458;-56
2022/12/02 02:58:14;;;;;;;;;43.75;36.25;;;;;7.18;66.44;101692.59;5077443;27;45383;-55
2022/12/02 03:00:40;;;;;;;;;41.75;38.25;;;;;7.10;67.02;101686.25;5051814;27;46014;-56
2022/12/02 03:03:06;;;;;;;;;43.00;37.80;;;;;7.10;66.24;101684.38;5057440;28;45550;-56
2022/12/02 03:05:31;;;;;;;;;54.25;39.75;;;;;7.11;66.50;101685.22;5076130;28;46164;-56
2022/12/02 03:07:57;;;;;;;;;53.00;40.25;;;;;7.15;66.51;101678.44;5075646;28;45482;-57
2022/12/02 03:10:22;;;;;;;;;48.50;37.75;;;;;7.20;65.51;101667.84;5075755;28;45340;-56
2022/12/02 03:12:52;;;;;;;;;41.00;34.75;;;;;7.19;65.92;101666.13;5077887;27;45311;-56
2022/12/02 03:15:18;;;;;;;;;49.20;38.20;;;;;7.04;65.92;101634.03;5059519;28;46664;-56
2022/12/02 03:17:44;;;;;;;;;47.60;37.80;;;;;7.25;65.96;101664.63;5076020;28;45364;-55
2022/12/02 03:20:10;;;;;;;;;43.25;37.25;;;;;7.29;66.12;101666.84;5075288;28;45719;-55
2022/12/02 03:22:35;;;;;;;;;40.00;34.20;;;;;7.31;65.75;101666.69;5075900;28;45575;-55
2022/12/02 03:25:01;;;;;;;;;48.75;39.00;;;;;7.26;65.98;101663.59;5075190;28;46058;-56
2022/12/02 03:27:26;;;;;;;;;45.50;37.25;;;;;7.33;65.48;101661.91;5075614;28;45416;-55
2022/12/02 03:29:52;;;;;;;;;39.50;34.25;;;;;7.26;65.52;101658.16;5076987;27;45347;-55
2022/12/02 03:32:17;;;;;;;;;52.25;36.50;;;;;7.27;65.77;101657.13;5076958;27;45685;-56
2022/12/02 03:34:43;;;;;;;;;37.75;34.50;;;;;6.67;65.79;101558.03;5075450;28;45761;-56
2022/12/02 03:37:08;;;;;;;;;44.75;37.75;;;;;7.10;66.05;101624.31;5076902;27;45324;-56
2022/12/02 03:39:34;;;;;;;;;54.50;38.25;;;;;7.29;66.11;101649.59;5076459;27;45464;-57
2022/12/02 03:41:59;;;;;;;;;47.75;35.25;;;;;7.36;66.11;101653.38;5075935;28;45512;-56
2022/12/02 03:44:25;;;;;;;;;44.75;38.50;;;;;7.17;65.30;101625.34;5075127;28;45693;-55
2022/12/02 03:46:50;;;;;;;;;54.50;40.75;;;;;7.38;65.61;101647.75;5058515;28;45434;-56
2022/12/02 03:49:16;;;;;;;;;44.50;37.50;;;;;7.21;65.28;101628.63;5076490;28;45380;-55
2022/12/02 03:51:41;;;;;;;;;54.25;38.75;;;;;6.55;65.01;101502.94;5075205;28;45528;-56
2022/12/02 03:54:07;;;;;;;;;46.25;36.00;;;;;7.19;65.24;101606.06;5076482;28;46222;-56
2022/12/02 03:56:37;;;;;;;;;45.50;38.25;;;;;7.27;65.15;101627.09;5076231;27;45494;-56
2022/12/02 03:59:02;;;;;;;;;54.00;39.40;;;;;6.97;65.46;101596.63;5075349;28;45259;-56
2022/12/02 04:01:28;;;;;;;;;48.00;39.75;;;;;7.19;65.44;101645.16;5076371;27;45292;-56
2022/12/02 04:03:53;;;;;;;;;42.00;37.00;;;;;7.17;65.55;101636.25;5041020;27;46070;-56
2022/12/02 04:06:19;;;;;;;;;57.25;42.25;;;;;7.17;65.77;101640.88;5076196;28;45323;-56
2022/12/02 04:08:44;;;;;;;;;56.00;39.00;;;;;7.19;65.47;101630.66;5076353;27;45400;-55
2022/12/02 04:11:10;;;;;;;;;49.75;40.00;;;;;7.13;65.51;101636.78;5076575;28;45466;-55
2022/12/02 04:13:35;;;;;;;;;51.75;38.00;;;;;7.16;65.64;101629.09;5074806;28;45486;-56
2022/12/02 04:16:01;;;;;;;;;39.25;34.50;;;;;7.22;65.59;101632.19;5076024;28;45399;-57
2022/12/02 04:18:26;;;;;;;;;50.50;41.50;;;;;7.23;65.67;101623.84;5074969;28;45411;-56
2022/12/02 04:20:52;;;;;;;;;54.75;41.25;;;;;7.18;65.37;101616.16;5076030;28;45343;-57
2022/12/02 04:23:17;;;;;;;;;49.50;37.75;;;;;7.07;64.93;101616.47;5076093;28;46105;-57
2022/12/02 04:25:43;;;;;;;;;46.00;38.25;;;;;6.99;65.55;101605.53;5075730;27;45348;-56
2022/12/02 04:28:08;;;;;;;;;47.00;38.50;;;;;7.00;66.42;101604.50;5076132;27;45448;-56
2022/12/02 04:30:33;;;;;;;;;54.50;40.00;;;;;7.09;65.55;101600.75;5076037;27;45644;-58
2022/12/02 04:32:59;;;;;;;;;42.00;37.50;;;;;7.12;65.36;101597.72;5075761;27;45653;-57
2022/12/02 04:35:24;;;;;;;;;54.25;42.00;;;;;7.15;65.05;101602.00;5076051;27;45422;-55
2022/12/02 04:37:50;;;;;;;;;39.75;34.00;;;;;6.80;65.45;101565.72;5076056;28;45418;-56
2022/12/02 04:40:16;;;;;;;;;46.25;39.25;;;;;7.13;65.30;101615.78;5075607;27;45383;-57
2022/12/02 04:42:42;;;;;;;;;49.25;40.00;;;;;7.15;65.13;101610.19;5074367;28;45546;-56
2022/12/02 04:45:08;;;;;;;;;52.25;37.50;;;;;7.18;65.18;101618.00;5076014;27;45364;-56
2022/12/02 04:47:33;;;;;;;;;43.00;38.60;;;;;7.15;65.34;101615.63;5075735;27;45363;-57
2022/12/02 04:49:59;;;;;;;;;49.50;38.00;;;;;7.19;65.36;101609.66;5075841;27;45434;-57
2022/12/02 04:52:24;;;;;;;;;43.50;33.75;;;;;7.27;65.49;101607.97;5074427;28;45979;-56
2022/12/02 04:54:50;;;;;;;;;46.25;40.75;;;;;7.11;65.47;101585.09;5075601;27;45388;-56
2022/12/02 04:57:15;;;;;;;;;49.25;36.25;;;;;7.25;65.31;101608.13;5075763;28;45346;-56
2022/12/02 04:59:41;;;;;;;;;55.50;38.75;;;;;7.13;65.15;101595.81;5075821;27;45278;-57
2022/12/02 05:02:06;;;;;;;;;48.00;39.25;;;;;6.91;65.12;101568.16;5075448;28;45591;-56
2022/12/02 05:04:31;;;;;;;;;51.50;39.00;;;;;7.15;65.38;101594.63;5043733;28;45495;-57
2022/12/02 05:06:57;;;;;;;;;51.50;38.75;;;;;7.20;65.29;101596.84;5075686;27;45540;-56
2022/12/02 05:09:22;;;;;;;;;47.25;38.25;;;;;7.11;65.13;101586.94;5075971;27;45452;-56
2022/12/02 05:11:48;;;;;;;;;47.25;40.25;;;;;7.16;65.58;101590.88;5075014;27;46336;-57
2022/12/02 05:14:13;;;;;;;;;37.75;26.50;;;;;6.56;65.11;101504.66;5075526;27;45395;-56
2022/12/02 05:16:39;;;;;;;;;52.00;38.00;;;;;7.07;66.15;101588.28;5075405;27;45382;-56
2022/12/02 05:19:04;;;;;;;;;46.75;37.50;;;;;7.01;66.10;101589.84;5075598;27;45810;-56
2022/12/02 05:21:30;;;;;;;;;35.00;33.25;;;;;6.77;65.67;101536.91;5075225;27;45938;-56
2022/12/02 05:23:55;;;;;;;;;44.50;35.25;;;;;7.07;65.76;101575.50;5073987;28;45484;-57
2022/12/02 05:26:21;;;;;;;;;47.25;37.75;;;;;7.13;65.99;101583.03;5075289;27;45355;-56
2022/12/02 05:28:46;;;;;;;;;49.75;39.25;;;;;7.02;66.26;101584.22;5075584;28;45437;-56
2022/12/02 05:31:12;;;;;;;;;44.25;32.50;;;;;6.98;65.63;101574.63;5074995;27;45800;-55
2022/12/02 05:33:37;;;;;;;;;53.25;41.75;;;;;6.78;66.45;101550.38;5074176;28;45274;-56
2022/12/02 05:36:03;;;;;;;;;55.25;41.25;;;;;6.93;66.52;101568.81;5075076;27;45273;-57
2022/12/02 05:38:28;;;;;;;;;44.00;39.50;;;;;6.93;66.19;101571.56;5075688;27;45550;-57
2022/12/02 05:40:57;;;;;;;;;45.75;38.75;;;;;6.94;66.18;101561.50;5074249;27;46327;-56
2022/12/02 05:43:24;;;;;;;;;53.80;40.80;;;;;6.91;66.19;101560.81;5074614;27;45340;-57
2022/12/02 05:45:49;;;;;;;;;48.60;40.00;;;;;6.86;66.26;101545.97;5073767;27;45776;-56
2022/12/02 05:48:16;;;;;;;;;52.75;40.50;;;;;6.87;66.29;101562.16;5073303;28;45411;-56
2022/12/02 05:50:42;;;;;;;;;51.60;41.60;;;;;6.97;66.59;101562.03;5074477;27;46535;-56
2022/12/02 05:53:28;;;;;;;;;48.50;38.00;;;;;7.02;66.05;101562.38;5074830;27;45417;-57
2022/12/02 05:55:54;;;;;;;;;58.40;39.80;;;;;7.07;65.86;101559.13;5074242;27;45374;-57
2022/12/02 05:58:19;;;;;;;;;51.80;39.80;;;;;6.73;65.73;101492.72;5075058;27;45337;-57
2022/12/02 06:00:50;;;;;;;;;55.25;42.25;;;;;6.97;65.70;101556.56;5073158;28;46485;-56
2022/12/02 06:03:17;;;;;;;;;49.40;40.20;;;;;6.99;66.04;101553.69;5073056;28;45300;-53
2022/12/02 06:05:42;;;;;;;;;52.60;39.00;;;;;7.03;66.16;101555.03;5029115;28;46442;-56
2022/12/02 06:08:16;;;;;;;;;50.75;38.25;;;;;7.07;65.86;101545.47;5090744;27;45365;-54
2022/12/02 06:10:53;;;;;;;;;58.00;41.80;;;;;6.45;65.79;101456.72;5074272;28;45717;-57
2022/12/02 06:13:24;;;;;;;;;34.60;33.00;;;;;7.02;66.00;101539.66;5055869;28;45354;-55
2022/12/02 06:15:49;;;;;;;;;54.80;41.20;;;;;7.04;66.22;101537.63;5090142;27;45425;-56
2022/12/02 06:18:19;;;;;;;;;49.50;39.50;;;;;6.75;66.14;101489.84;5073241;28;45458;-55
2022/12/02 06:20:45;;;;;;;;;57.60;41.80;;;;;6.99;65.63;101540.88;5074087;27;45569;-57
2022/12/02 06:23:13;;;;;;;;;59.60;43.60;;;;;6.97;66.16;101529.25;5074622;28;45447;-56
2022/12/02 06:25:39;;;;;;;;;47.80;40.00;;;;;7.06;66.36;101538.31;5077802;27;45449;-56
2022/12/02 06:28:19;;;;;;;;;53.25;41.50;;;;;6.96;65.96;101541.22;5076996;28;45338;-58
2022/12/02 06:30:45;;;;;;;;;49.40;42.40;;;;;6.98;66.68;101547.34;5076173;28;47675;-56
2022/12/02 06:33:24;;;;;;;;;51.75;41.50;;;;;6.91;65.99;101535.41;5076664;28;45401;-59
2022/12/02 06:35:49;;;;;;;;;54.60;40.60;;;;;6.81;66.03;101519.19;5076602;28;45329;-55
2022/12/02 06:38:23;;;;;;;;;60.25;44.00;;;;;6.86;66.78;101541.38;5076533;28;45416;-55
2022/12/02 06:40:49;;;;;;;;;56.00;43.50;;;;;6.86;66.73;101543.22;5059864;28;46533;-57
2022/12/02 06:43:17;;;;;;;;;62.75;43.50;;;;;6.84;67.12;101532.47;5077673;27;45352;-59
2022/12/02 06:45:43;;;;;;;;;55.60;41.60;;;;;6.97;66.84;101539.31;5076504;28;45626;-56
2022/12/02 06:48:27;;;;;;;;;56.00;42.75;;;;;6.76;67.02;101497.84;5059783;28;45231;-56
2022/12/02 06:50:54;;;;;;;;;53.75;43.25;;;;;6.97;66.46;101529.25;5077104;27;45747;-58
2022/12/02 06:53:40;;;;;;;;;59.40;44.00;;;;;7.01;66.51;101533.38;5075973;28;45282;-56
2022/12/02 06:56:18;;;;;;;;;53.40;43.20;;;;;7.06;66.46;101532.88;5075946;28;45384;-57
2022/12/02 06:59:00;;;;;;;;;57.50;43.00;;;;;7.07;66.82;101531.84;5077794;28;45371;-54
2022/12/02 07:01:40;;;;;;;;;54.20;39.80;;;;;6.98;66.76;101530.13;5077251;27;46483;-57
2022/12/02 07:04:08;;;;;;;;;56.60;41.20;;;;;6.96;67.12;101533.03;5077489;27;45792;-56
2022/12/02 07:06:44;;;;;;;;;52.60;41.20;;;;;6.94;67.05;101535.03;5077396;27;45312;-57
2022/12/02 07:09:20;;;;;;;;;56.00;44.25;;;;;6.93;67.27;101540.69;5054414;27;45391;-53
2022/12/02 07:11:50;;;;;;;;;61.25;44.75;;;;;7.01;67.35;101541.56;5075751;28;45798;-57
2022/12/02 07:14:47;;;;;;;;;55.80;41.80;;;;;7.10;66.71;101542.41;5077152;27;45441;-59
2022/12/02 07:17:40;;;;;;;;;53.80;38.80;;;;;7.11;67.08;101538.69;5075976;28;45815;-55
2022/12/02 07:20:05;;;;;;;;;56.50;43.75;;;;;7.09;67.00;101531.69;5062059;28;45565;-55
2022/12/02 07:22:39;;;;;;;;;57.50;41.25;;;;;7.01;66.86;101525.19;5076641;28;46456;-56
2022/12/02 07:25:10;;;;;;;;;49.00;37.00;;;;;6.97;66.93;101526.53;5077040;27;45499;-54
2022/12/02 07:27:38;;;;;;;;;49.20;39.40;;;;;6.95;67.19;101527.72;5077020;28;45408;-55
2022/12/02 07:30:33;;;;;;;;;48.25;38.75;;;;;7.03;67.90;101538.66;5077299;27;45266;-55
2022/12/02 07:32:58;;;;;;;;;56.80;43.40;;;;;7.09;67.56;101542.59;5070894;28;45665;-57
2022/12/02 07:35:24;;;;;;;;;49.50;41.50;;;;;7.10;67.42;101536.94;5075893;27;45475;-59
2022/12/02 07:37:49;;;;;;;;;61.25;46.00;;;;;7.05;67.50;101522.97;5090147;27;45405;-54
2022/12/02 07:40:15;;;;;;;;;58.50;43.00;;;;;7.05;67.78;101522.97;5073896;28;45424;-58
2022/12/02 07:42:42;;;;;;;;;60.00;47.25;;;;;7.00;67.99;101515.25;5072841;28;46401;-57
2022/12/02 07:45:09;;;;;;;;;48.40;41.40;;;;;6.97;68.55;101525.66;5073670;27;45456;-56
2022/12/02 07:47:34;;;;;;;;;53.00;41.00;;;;;6.96;67.84;101527.56;5066668;28;45626;-54
2022/12/02 07:50:00;;;;;;;;;50.75;40.25;;;;;6.54;68.19;101461.16;5061072;28;45285;-56
2022/12/02 07:52:25;;;;;;;;;54.75;41.50;;;;;7.01;68.33;101532.50;5056390;28;45590;-56
2022/12/02 07:54:53;;;;;;;;;53.00;42.75;;;;;7.00;68.71;101530.81;5075134;27;45356;-51
2022/12/02 07:57:19;;;;;;;;;56.20;41.20;;;;;7.02;68.07;101537.81;5076164;27;45489;-55
2022/12/02 07:59:44;;;;;;;;;57.75;45.25;;;;;6.93;68.86;101527.88;5077396;27;45377;-51
2022/12/02 08:02:10;;;;;;;;;58.75;45.75;;;;;6.80;68.68;101512.03;5076126;27;46140;-58
2022/12/02 08:04:35;;;;;;;;;53.75;44.00;;;;;6.78;69.35;101527.72;5075224;28;45486;-59
2022/12/02 08:07:01;;;;;;;;;58.00;44.00;;;;;6.75;69.59;101530.75;5076542;27;45430;-60
2022/12/02 08:09:26;;;;;;;;;57.50;44.25;;;;;6.79;69.55;101532.16;5050223;28;45385;-59
2022/12/02 08:11:52;;;;;;;;;49.25;40.00;;;;;6.83;69.02;101538.94;5076154;27;45829;-59
2022/12/02 08:14:17;;;;;;;;;64.75;50.00;;;;;6.72;69.81;101540.13;5076477;27;45311;-61
2022/12/02 08:16:43;;;;;;;;;63.25;47.50;;;;;6.61;69.57;101524.06;5076208;27;45337;-57
2022/12/02 08:19:08;;;;;;;;;55.50;43.50;;;;;6.75;69.61;101528.03;5076774;28;45382;-61
2022/12/02 08:21:34;;;;;;;;;51.25;40.50;;;;;6.79;69.28;101523.97;5076035;27;46195;-59
2022/12/02 08:24:00;;;;;;;;;62.25;47.25;;;;;6.64;69.41;101497.34;5076158;27;45258;-59
2022/12/02 08:26:26;;;;;;;;;65.00;49.00;;;;;6.86;69.50;101533.19;5076275;27;45422;-59
2022/12/02 08:28:52;;;;;;;;;60.75;51.00;;;;;6.90;69.43;101529.06;5076645;27;45336;-57
2022/12/02 08:31:17;;;;;;;;;64.25;48.75;;;;;6.33;69.28;101432.47;5075797;27;46450;-58
2022/12/02 08:33:43;;;;;;;;;57.25;44.00;;;;;6.99;69.45;101540.88;5076131;28;45426;-57
2022/12/02 08:36:08;;;;;;;;;60.00;46.25;;;;;6.97;69.15;101537.47;5074883;28;45462;-58
2022/12/02 08:38:34;;;;;;;;;59.50;47.25;;;;;6.90;68.58;101542.72;5075975;28;45352;-58
2022/12/02 08:40:59;;;;;;;;;59.00;44.25;;;;;6.85;69.56;101536.94;5074000;28;46101;-58
2022/12/02 08:43:25;;;;;;;;;58.50;43.75;;;;;6.81;68.70;101538.28;5075647;27;45846;-58
2022/12/02 08:45:50;;;;;;;;;58.75;45.00;;;;;6.89;69.18;101545.63;5074910;27;45423;-58
2022/12/02 08:48:16;;;;;;;;;59.25;44.00;;;;;6.93;68.62;101530.63;5075890;28;46016;-59
2022/12/02 08:50:41;;;;;;;;;62.00;49.00;;;;;6.96;68.70;101530.28;5075628;27;46415;-59
2022/12/02 08:53:07;;;;;;;;;62.00;47.00;;;;;6.97;68.67;101536.59;5075787;28;45435;-60
2022/12/02 08:55:33;;;;;;;;;52.50;40.00;;;;;6.93;68.61;101541.53;5074380;28;45412;-57
2022/12/02 08:57:58;;;;;;;;;57.50;41.75;;;;;6.69;68.87;101490.50;5076023;27;45361;-60
2022/12/02 09:00:24;;;;;;;;;60.75;45.25;;;;;6.99;68.52;101540.03;5075718;28;46264;-59
2022/12/02 09:02:50;;;;;;;;;59.40;48.60;;;;;7.03;68.07;101525.00;5075640;28;45379;-61
2022/12/02 09:05:15;;;;;;;;;58.75;45.00;;;;;7.05;68.50;101531.16;5069468;27;45907;-58
2022/12/02 09:07:41;;;;;;;;;49.75;40.00;;;;;7.08;67.89;101517.16;5070924;28;45330;-59
2022/12/02 09:10:07;;;;;;;;;55.50;44.50;;;;;6.96;67.81;101500.28;5067128;27;46033;-61
2022/12/02 09:12:33;;;;;;;;;61.00;47.20;;;;;7.01;68.30;101518.88;5047367;27;45776;-61
2022/12/02 09:14:59;;;;;;;;;61.25;46.50;;;;;7.02;67.92;101515.97;5069198;28;45471;-60
2022/12/02 09:17:24;;;;;;;;;61.00;45.25;;;;;6.99;68.20;101507.28;5071239;27;45815;-61
2022/12/02 09:19:50;;;;;;;;;62.50;46.75;;;;;7.07;68.11;101520.06;5070270;27;46101;-63
2022/12/02 09:22:15;;;;;;;;;64.75;49.25;;;;;7.08;67.96;101522.63;5069380;28;45398;-61
2022/12/02 09:24:41;;;;;;;;;60.75;45.25;;;;;7.11;67.64;101533.22;5069141;27;45485;-61
2022/12/02 09:27:06;;;;;;;;;67.25;49.50;;;;;6.87;67.35;101493.94;5070843;27;45725;-61
2022/12/02 09:29:33;;;;;;;;;58.75;45.00;;;;;6.84;67.52;101477.91;5068830;28;48267;-61
2022/12/02 09:31:59;;;;;;;;;62.75;47.50;;;;;6.96;68.24;101511.19;5070353;27;45901;-61
2022/12/02 09:34:24;;;;;;;;;61.75;48.00;;;;;6.73;68.52;101478.25;5070407;28;45523;-61
2022/12/02 09:36:50;;;;;;;;;69.00;50.00;;;;;6.97;68.37;101509.28;5068955;27;45482;-60
2022/12/02 09:39:15;;;;;;;;;65.75;48.50;;;;;7.02;68.19;101513.25;5070142;28;45452;-62
2022/12/02 09:41:41;;;;;;;;;69.00;51.50;;;;;7.00;68.30;101525.34;5069635;27;45522;-61
2022/12/02 09:44:06;;;;;;;;;59.75;42.25;;;;;6.90;68.55;101506.41;5068567;28;45380;-60
2022/12/02 09:46:32;;;;;;;;;67.00;48.00;;;;;6.78;68.49;101489.50;5068421;28;45665;-61
2022/12/02 09:48:57;;;;;;;;;73.00;52.75;;;;;6.93;68.91;101507.94;5068512;27;46408;-62
2022/12/02 09:51:23;;;;;;;;;60.50;44.50;;;;;6.98;68.55;101502.84;5070180;27;45899;-61
2022/12/02 09:53:48;;;;;;;;;61.25;47.00;;;;;6.96;68.14;101503.00;5069746;27;45470;-60
2022/12/02 09:56:16;;;;;;;;;58.75;46.00;;;;;6.78;68.47;101465.78;5070388;27;45455;-64
2022/12/02 09:58:42;;;;;;;;;62.75;47.75;;;;;6.99;67.79;101497.19;5073564;27;45881;-62
2022/12/02 10:01:10;;;;;;;;;69.50;50.25;;;;;6.94;67.76;101487.81;5072394;28;45427;-61
2022/12/02 10:03:36;;;;;;;;;65.50;50.75;;;;;7.01;68.30;101497.91;5072157;27;45413;-61
2022/12/02 10:06:03;;;;;;;;;63.00;46.50;;;;;7.08;67.89;101491.72;5088963;27;45557;-60
2022/12/02 10:08:29;;;;;;;;;63.25;51.25;;;;;7.10;67.92;101484.25;5054125;28;45671;-61
2022/12/02 10:10:55;;;;;;;;;62.00;45.00;;;;;7.14;67.45;101485.59;5071383;28;45580;-60
2022/12/02 10:13:23;;;;;;;;;62.20;45.20;;;;;7.00;67.68;101481.69;5070214;27;45367;-54
2022/12/02 10:15:49;;;;;;;;;65.75;48.00;;;;;6.94;67.99;101494.09;5068009;28;45840;-60
2022/12/02 10:18:25;;;;;;;;;66.00;50.50;;;;;6.96;67.86;101483.03;5070189;28;45525;-55
2022/12/02 10:20:51;;;;;;;;;59.25;41.00;;;;;6.93;68.01;101478.75;5070286;27;45620;-59
2022/12/02 10:23:23;;;;;;;;;59.75;46.75;;;;;6.88;68.33;101473.81;5071337;27;45403;-60
2022/12/02 10:26:09;;;;;;;;;62.50;47.75;;;;;6.94;67.95;101479.63;5069612;28;46088;-59
2022/12/02 10:28:35;;;;;;;;;69.25;51.50;;;;;7.00;68.21;101476.22;5055218;28;45979;-59
2022/12/02 10:31:14;;;;;;;;;71.25;49.00;;;;;6.96;67.67;101472.97;5087392;27;45496;-57
2022/12/02 10:33:41;;;;;;;;;71.00;51.25;;;;;6.49;67.78;101406.25;5066745;28;45556;-62
2022/12/02 10:36:08;;;;;;;;;70.75;48.75;;;;;6.70;67.92;101435.78;5068272;28;45487;-59
2022/12/02 10:38:43;;;;;;;;;77.75;54.25;;;;;6.91;68.21;101465.31;5070445;27;45901;-62
2022/12/02 10:41:16;;;;;;;;;67.40;48.60;;;;;6.95;68.47;101467.69;5071428;27;45431;-62
2022/12/02 10:43:51;;;;;;;;;69.00;51.50;;;;;6.51;67.69;101394.16;5053775;28;45486;-62
2022/12/02 10:46:19;;;;;;;;;58.50;45.75;;;;;6.98;67.92;101459.16;5071927;28;45445;-60
2022/12/02 10:48:45;;;;;;;;;71.00;50.50;;;;;7.01;68.08;101458.81;5069339;28;46735;-60
2022/12/02 10:51:14;;;;;;;;;66.25;49.50;;;;;6.82;67.01;101410.91;5071538;27;45423;-59
2022/12/02 10:53:40;;;;;;;;;69.25;49.50;;;;;6.91;67.31;101421.63;5070514;28;45826;-61
2022/12/02 10:56:06;;;;;;;;;61.75;48.25;;;;;6.93;66.92;101415.97;5070724;28;45444;-59
2022/12/02 10:58:31;;;;;;;;;65.00;47.75;;;;;7.09;66.88;101439.69;5070408;28;45685;-60
2022/12/02 11:00:57;;;;;;;;;63.50;47.75;;;;;6.75;67.18;101403.38;5070439;27;45517;-60
2022/12/02 11:03:23;;;;;;;;;63.25;50.75;;;;;6.94;67.37;101436.78;5049831;27;45969;-61
2022/12/02 11:05:49;;;;;;;;;62.50;48.00;;;;;6.91;67.59;101432.56;5035522;28;45487;-60
2022/12/02 11:08:23;;;;;;;;;60.75;49.50;;;;;6.88;67.33;101434.78;5070004;27;46407;-59
2022/12/02 11:10:50;;;;;;;;;66.20;51.80;;;;;6.84;67.81;101423.31;5069788;28;45457;-60
2022/12/02 11:13:30;;;;;;;;;57.75;44.75;;;;;6.86;67.09;101415.84;5034391;28;45538;-59
2022/12/02 11:15:57;;;;;;;;;71.00;51.00;;;;;6.80;67.52;101407.47;5066723;28;45767;-63
2022/12/02 11:18:22;;;;;;;;;63.75;50.00;;;;;6.93;67.53;101426.91;5052618;28;47588;-65